Terminal Aerodrome Forecast
Issued by NWS

Home | Current Version | Previous Version | Text Only | Print | Product List | Glossary Off
Versions: 1 2 3 4 5 6 7 8 9 10 11 12 13 14 15 16 17 18 19

000
FTUS43 KUNR 112223 AAA
TAFGCC
TAF AMD
KGCC 112223Z 1122/1218 33011G22KT P6SM SKC
     FM120000 31007KT P6SM SKC
     FM120200 27006KT P6SM SKC
     FM120500 24007KT P6SM SKC=

USA.gov is the U.S. government's official web portal to all federal, state and local government web resources and services.